Time;durP1;ratioP1;P1;durP2;ratioP2;P2;SDS_P1;SDS_P2;PMS_P1;PMS_P2;Temp;Humidity;BMP_temperature;BMP_pressure;BME280_temperature;BME280_humidity;BME280_pressure;Samples;Min_cycle;Max_cycle;Signal;HPM_P1;HPM_P2
2022/07/22 00:01:13;;;;;;;9.70;8.73;;;20.80;72.60;;;;;;5011494;28;20054;-68
2022/07/22 00:03:39;;;;;;;10.60;8.30;;;20.70;72.70;;;;;;5011514;28;20033;-68
2022/07/22 00:06:05;;;;;;;10.68;8.98;;;20.70;72.90;;;;;;5011476;28;20034;-68
2022/07/22 00:08:31;;;;;;;10.50;8.35;;;20.60;73.10;;;;;;5010713;28;20510;-68
2022/07/22 00:10:57;;;;;;;9.00;8.10;;;20.50;72.80;;;;;;5011427;28;20030;-68
2022/07/22 00:13:23;;;;;;;9.98;8.65;;;20.50;73.00;;;;;;5011438;28;20439;-68
2022/07/22 00:15:49;;;;;;;9.98;8.98;;;20.50;73.10;;;;;;5011422;28;20032;-67
2022/07/22 00:18:14;;;;;;;9.63;8.18;;;20.50;73.70;;;;;;5010672;28;20022;-67
2022/07/22 00:20:40;;;;;;;10.43;8.90;;;20.50;73.40;;;;;;4993751;28;20030;-67
2022/07/22 00:23:05;;;;;;;9.63;8.63;;;20.50;73.00;;;;;;5010190;28;20026;-68
2022/07/22 00:25:31;;;;;;;9.40;8.35;;;20.40;71.80;;;;;;5011422;28;20026;-69
2022/07/22 00:27:57;;;;;;;9.73;8.43;;;20.50;72.70;;;;;;4993048;28;20022;-68
2022/07/22 00:30:22;;;;;;;9.05;7.97;;;20.50;71.80;;;;;;5011117;28;20026;-68
2022/07/22 00:32:48;;;;;;;9.68;8.05;;;20.50;71.50;;;;;;5011170;28;20022;-68
2022/07/22 00:35:13;;;;;;;8.52;7.72;;;20.40;72.00;;;;;;5010936;28;20407;-68
2022/07/22 00:37:39;;;;;;;8.93;7.47;;;20.50;71.40;;;;;;5010425;28;20029;-68
2022/07/22 00:40:05;;;;;;;9.43;8.00;;;20.50;70.80;;;;;;5011029;28;20026;-68
2022/07/22 00:42:31;;;;;;;8.90;7.93;;;20.50;70.90;;;;;;5011046;28;20026;-68
2022/07/22 00:44:57;;;;;;;9.30;7.35;;;20.40;70.90;;;;;;5011211;28;20458;-68
2022/07/22 00:47:23;;;;;;;10.02;7.70;;;20.40;71.00;;;;;;5003650;28;20033;-68
2022/07/22 00:49:49;;;;;;;8.45;7.47;;;20.30;71.20;;;;;;5007896;28;20037;-68
2022/07/22 00:52:14;;;;;;;11.15;7.13;;;20.40;71.10;;;;;;5010942;28;20026;-69
2022/07/22 00:54:40;;;;;;;8.35;7.55;;;20.30;70.60;;;;;;5010626;28;20597;-69
2022/07/22 00:57:06;;;;;;;8.18;7.32;;;;;;;;;;5010300;28;20028;-68
2022/07/22 00:59:32;;;;;;;9.32;7.35;;;;;;;;;;5010941;28;20451;-70
2022/07/22 01:01:58;;;;;;;10.63;7.15;;;;;;;;;;5010691;28;20022;-68
2022/07/22 01:04:24;;;;;;;10.40;7.50;;;;;;;;;;5010777;28;20022;-68
2022/07/22 01:06:50;;;;;;;10.25;7.45;;;;;;;;;;5010942;28;20503;-68
2022/07/22 01:09:16;;;;;;;8.50;7.32;;;;;;;;;;5011418;28;20030;-69
2022/07/22 01:11:42;;;;;;;11.27;7.90;;;;;;;;;;5014352;28;20465;-68
2022/07/22 01:14:08;;;;;;;7.97;7.00;;;;;;;;;;5014378;28;20026;-68
2022/07/22 01:16:35;;;;;;;9.43;6.72;;;;;;;;;;5014341;28;20040;-68
2022/07/22 01:19:01;;;;;;;8.68;7.38;;;;;;;;;;5013519;28;20511;-69
2022/07/22 01:21:28;;;;;;;8.80;7.22;;;;;;;;;;5014216;28;20054;-70
2022/07/22 01:23:54;;;;;;;9.57;7.47;;;;;;;;;;5013053;28;20489;-69
2022/07/22 01:26:20;;;;;;;8.27;7.47;;;;;;;;;;5014201;28;20018;-68
2022/07/22 01:28:46;;;;;;;9.82;7.65;;;;;;;;;;5013495;28;20026;-68
2022/07/22 01:31:11;;;;;;;8.77;7.57;;;20.00;71.10;;;;;;5013980;28;20025;-68
2022/07/22 01:33:38;;;;;;;12.65;8.00;;;20.00;71.50;;;;;;5013862;28;20030;-70
2022/07/22 01:36:04;;;;;;;9.70;6.95;;;19.90;71.80;;;;;;4996384;28;20032;-68
2022/07/22 01:38:30;;;;;;;8.73;7.93;;;19.70;71.50;;;;;;5013184;28;20022;-69
2022/07/22 01:40:56;;;;;;;10.88;7.82;;;19.70;72.00;;;;;;5014112;28;20029;-70
2022/07/22 01:43:21;;;;;;;13.60;7.80;;;19.60;71.80;;;;;;5014328;28;20088;-69
2022/07/22 01:45:51;;;;;;;8.60;7.18;;;19.60;72.10;;;;;;5013840;28;20104;-69
2022/07/22 01:48:17;;;;;;;7.57;6.88;;;19.60;72.30;;;;;;5003324;28;20406;-70
2022/07/22 01:50:43;;;;;;;8.02;7.25;;;19.50;72.40;;;;;;5013846;28;20161;-69
2022/07/22 01:53:09;;;;;;;9.80;7.65;;;19.50;72.10;;;;;;5013681;28;20025;-69
2022/07/22 01:55:34;;;;;;;8.93;6.40;;;19.50;71.80;;;;;;5013589;28;20076;-69
2022/07/22 01:58:00;;;;;;;8.73;6.43;;;19.60;71.20;;;;;;5012913;28;20229;-68
2022/07/22 02:00:26;;;;;;;9.88;7.00;;;19.70;71.00;;;;;;5013519;28;20025;-69
2022/07/22 02:02:52;;;;;;;8.15;6.72;;;19.60;71.20;;;;;;4996012;28;20025;-68
2022/07/22 02:05:18;;;;;;;7.63;6.20;;;19.70;71.00;;;;;;5013775;28;20034;-68
2022/07/22 02:07:43;;;;;;;10.52;6.07;;;19.70;70.70;;;;;;5013080;28;20037;-68
2022/07/22 02:10:09;;;;;;;8.82;6.07;;;19.70;71.00;;;;;;5013916;28;20396;-69
2022/07/22 02:12:35;;;;;;;10.95;6.65;;;19.60;71.00;;;;;;5013753;28;20034;-67
2022/07/22 02:15:01;;;;;;;10.55;6.75;;;19.60;71.10;;;;;;5013770;28;20604;-67
2022/07/22 02:17:26;;;;;;;8.23;6.50;;;19.50;71.30;;;;;;5012417;28;20026;-68
2022/07/22 02:19:52;;;;;;;8.88;6.00;;;19.50;71.30;;;;;;5013228;28;20032;-68
2022/07/22 02:22:18;;;;;;;7.97;6.15;;;19.50;71.30;;;;;;5013090;28;20029;-70
2022/07/22 02:24:43;;;;;;;7.50;6.18;;;19.50;71.20;;;;;;5011386;28;20033;-68
2022/07/22 02:27:09;;;;;;;9.27;5.75;;;19.50;71.10;;;;;;5012331;28;20026;-68
2022/07/22 02:29:34;;;;;;;11.07;6.15;;;19.50;70.80;;;;;;5012960;28;20030;-68
2022/07/22 02:32:00;;;;;;;10.57;5.88;;;19.60;70.70;;;;;;5012935;28;20547;-71
2022/07/22 02:34:26;;;;;;;8.55;5.57;;;19.60;70.70;;;;;;5013057;28;20026;-68
2022/07/22 02:36:52;;;;;;;9.15;6.22;;;19.60;70.70;;;;;;5012973;28;20018;-66
2022/07/22 02:39:17;;;;;;;6.30;5.65;;;19.50;70.70;;;;;;5014676;28;20053;-68
2022/07/22 02:41:43;;;;;;;8.93;6.22;;;19.50;70.70;;;;;;5015521;28;20025;-67
2022/07/22 02:44:09;;;;;;;11.40;6.35;;;19.50;70.70;;;;;;5015086;28;20519;-67
2022/07/22 02:46:35;;;;;;;7.00;6.18;;;19.50;71.00;;;;;;5013790;28;20028;-67
2022/07/22 02:49:01;;;;;;;6.13;5.50;;;19.50;71.10;;;;;;5002491;28;20037;-68
2022/07/22 02:51:26;;;;;;;9.15;5.90;;;19.50;71.00;;;;;;5012845;28;20083;-68
2022/07/22 02:53:52;;;;;;;8.05;6.18;;;19.50;71.00;;;;;;5012349;28;20030;-67
2022/07/22 02:56:19;;;;;;;11.65;6.05;;;19.50;71.20;;;;;;5012788;28;20025;-68
2022/07/22 02:58:46;;;;;;;7.18;5.60;;;19.40;71.30;;;;;;5012013;28;20026;-68
2022/07/22 03:01:12;;;;;;;7.55;6.05;;;19.40;71.60;;;;;;5012684;28;20036;-68
2022/07/22 03:03:38;;;;;;;7.55;5.82;;;19.40;71.50;;;;;;5012279;28;20424;-68
2022/07/22 03:06:04;;;;;;;8.55;6.43;;;19.40;71.50;;;;;;5012371;28;20434;-68
2022/07/22 03:08:29;;;;;;;10.02;6.28;;;19.40;71.60;;;;;;4993801;28;20024;-68
2022/07/22 03:10:55;;;;;;;11.20;8.60;;;19.30;71.70;;;;;;5012452;28;20026;-69
2022/07/22 03:13:21;;;;;;;26.30;14.43;;;19.30;71.70;;;;;;5012214;28;20026;-67
2022/07/22 03:15:46;;;;;;;11.55;7.22;;;19.30;71.90;;;;;;5012202;28;20018;-67
2022/07/22 03:18:12;;;;;;;42.72;21.38;;;19.30;72.10;;;;;;4993790;28;20072;-67
2022/07/22 03:20:37;;;;;;;25.83;14.02;;;19.40;72.30;;;;;;5012169;28;20069;-67
2022/07/22 03:23:03;;;;;;;12.18;8.18;;;19.40;72.40;;;;;;5010913;28;20033;-68
2022/07/22 03:25:30;;;;;;;10.38;7.05;;;19.40;72.10;;;;;;5012112;28;20038;-69
2022/07/22 03:27:56;;;;;;;6.38;5.68;;;19.40;72.00;;;;;;5011181;28;20018;-68
2022/07/22 03:30:22;;;;;;;8.50;6.20;;;19.40;71.90;;;;;;5012013;28;20095;-71
2022/07/22 03:32:48;;;;;;;9.50;5.93;;;19.40;72.00;;;;;;5011486;28;20021;-68
2022/07/22 03:35:14;;;;;;;7.13;6.35;;;19.40;72.00;;;;;;5012402;28;20088;-68
2022/07/22 03:37:40;;;;;;;8.50;6.20;;;19.50;71.80;;;;;;5011660;28;20755;-68
2022/07/22 03:40:07;;;;;;;7.50;6.03;;;19.50;71.80;;;;;;5012820;28;20116;-68
2022/07/22 03:42:32;;;;;;;55.33;34.42;;;19.50;71.80;;;;;;5012194;28;20030;-67
2022/07/22 03:44:58;;;;;;;6.85;6.15;;;19.60;71.60;;;;;;5012109;28;20098;-68
2022/07/22 03:47:24;;;;;;;6.95;5.93;;;19.60;71.50;;;;;;5004197;28;20030;-68
2022/07/22 03:49:50;;;;;;;6.63;6.03;;;19.80;71.30;;;;;;5008664;28;20377;-68
2022/07/22 03:52:16;;;;;;;7.15;5.40;;;20.00;70.70;;;;;;5011684;28;20034;-68
2022/07/22 03:54:43;;;;;;;9.25;5.05;;;20.60;69.20;;;;;;5011783;28;20032;-68
2022/07/22 03:57:09;;;;;;;7.50;5.70;;;21.30;67.10;;;;;;5010820;28;20032;-68
2022/07/22 03:59:35;;;;;;;7.30;5.63;;;21.50;65.30;;;;;;5011223;28;20029;-68
2022/07/22 04:02:00;;;;;;;7.10;5.38;;;21.60;65.20;;;;;;5011242;28;20033;-68
2022/07/22 04:04:26;;;;;;;6.45;5.50;;;22.10;63.90;;;;;;5011438;28;20522;-68
2022/07/22 04:06:52;;;;;;;10.00;5.22;;;22.50;62.80;;;;;;5011056;28;20022;-67
2022/07/22 04:09:18;;;;;;;6.95;5.13;;;23.00;61.30;;;;;;4992770;28;20030;-68
2022/07/22 04:11:44;;;;;;;7.85;5.60;;;23.70;59.40;;;;;;5010876;28;20084;-68
2022/07/22 04:14:09;;;;;;;7.28;5.43;;;24.30;57.50;;;;;;5010789;28;20029;-68
2022/07/22 04:16:35;;;;;;;7.93;5.05;;;24.70;55.60;;;;;;5010877;28;20534;-67
2022/07/22 04:19:01;;;;;;;8.43;5.32;;;25.00;54.80;;;;;;5010080;28;20550;-68
2022/07/22 04:21:27;;;;;;;6.90;4.65;;;25.40;53.80;;;;;;5010788;28;20029;-67
2022/07/22 04:23:53;;;;;;;9.82;5.00;;;26.00;52.50;;;;;;5010018;28;20042;-68
2022/07/22 04:26:19;;;;;;;7.97;5.38;;;26.80;50.60;;;;;;5011333;28;20098;-69
2022/07/22 04:28:45;;;;;;;10.25;5.88;;;27.20;48.80;;;;;;5010345;28;20496;-69
2022/07/22 04:31:10;;;;;;;8.73;5.30;;;27.30;47.70;;;;;;5010948;28;20026;-70
2022/07/22 04:33:36;;;;;;;6.53;5.90;;;27.70;46.60;;;;;;5010919;28;20033;-69
2022/07/22 04:36:02;;;;;;;8.07;5.15;;;26.80;48.50;;;;;;5011086;28;20144;-69
2022/07/22 04:38:28;;;;;;;9.77;5.57;;;27.20;48.20;;;;;;4992723;28;20018;-70
2022/07/22 04:40:53;;;;;;;7.47;5.38;;;27.60;47.20;;;;;;5011440;28;20499;-69
2022/07/22 04:43:19;;;;;;;6.57;5.20;;;27.40;47.50;;;;;;5044619;22;20050;-70
2022/07/22 04:45:45;;;;;;;12.27;5.97;;;;;;;;;;5051425;28;20068;-69
2022/07/22 04:48:11;;;;;;;7.43;5.15;;;;;;;;;;5037294;28;20375;-68
2022/07/22 04:50:37;;;;;;;7.78;4.95;;;;;;;;;;5047411;28;20104;-68
2022/07/22 04:53:04;;;;;;;5.15;3.88;;;;;;;;;;5045048;28;20024;-67
2022/07/22 04:55:30;;;;;;;5.32;4.07;;;;;;;;;;5022480;28;20039;-68
2022/07/22 04:57:56;;;;;;;6.18;4.57;;;;;;;;;;5041508;28;20025;-69
2022/07/22 05:00:23;;;;;;;10.10;3.95;;;;;;;;;;5033915;28;20349;-68
2022/07/22 05:02:49;;;;;;;5.40;3.88;;;;;;;;;;5032524;28;20009;-68
2022/07/22 05:05:15;;;;;;;11.00;4.25;;;;;;;;;;5045691;28;20079;-69
2022/07/22 05:07:41;;;;;;;5.82;3.50;;;;;;;;;;5051133;28;20029;-67
2022/07/22 05:10:08;;;;;;;4.60;3.50;;;;;;;;;;5037489;28;20387;-67
2022/07/22 05:12:34;;;;;;;8.43;4.20;;;;;;;;;;5029381;28;20472;-68
2022/07/22 05:15:00;;;;;;;5.25;3.88;;;;;;;;;;5036594;28;20034;-68
2022/07/22 05:17:26;;;;;;;8.32;4.13;;;;;;;;;;5047026;28;20051;-68
2022/07/22 05:19:52;;;;;;;4.05;3.55;;;;;;;;;;5037158;28;20061;-69
2022/07/22 05:22:18;;;;;;;5.10;3.83;;;;;;;;;;5049096;28;20483;-69
2022/07/22 05:24:44;;;;;;;6.43;3.83;;;;;;;;;;5040003;28;20032;-68
2022/07/22 05:27:10;;;;;;;4.13;3.40;;;;;;;;;;5040000;28;20555;-68
2022/07/22 05:29:35;;;;;;;4.38;3.95;;;;;;;;;;5046700;28;20087;-70
2022/07/22 05:32:02;;;;;;;6.88;3.85;;;;;;;;;;5035591;28;20021;-70
2022/07/22 05:34:27;;;;;;;8.15;3.78;;;35.70;31.50;;;;;;5046942;28;20021;-68
2022/07/22 05:36:53;;;;;;;9.20;3.45;;;35.70;31.70;;;;;;5041845;28;20044;-68
2022/07/22 05:39:19;;;;;;;5.32;4.07;;;36.20;30.80;;;;;;5040196;28;20132;-69
2022/07/22 05:41:45;;;;;;;8.18;3.95;;;36.00;30.80;;;;;;5050879;28;20109;-70
2022/07/22 05:44:11;;;;;;;5.25;3.10;;;36.40;30.90;;;;;;5019764;28;20055;-69
2022/07/22 05:46:36;;;;;;;6.32;3.40;;;37.10;30.00;;;;;;5046829;28;20044;-71
2022/07/22 05:49:02;;;;;;;5.28;3.42;;;37.40;29.40;;;;;;5043297;28;20032;-68
2022/07/22 05:51:28;;;;;;;5.85;3.80;;;;;;;;;;5021703;28;20033;-69
2022/07/22 05:53:54;;;;;;;3.63;2.92;;;;;;;;;;5051116;28;20033;-69
2022/07/22 05:56:20;;;;;;;7.68;3.20;;;;;;;;;;5038257;28;20021;-71
2022/07/22 05:58:46;;;;;;;4.10;3.20;;;;;;;;;;5044287;28;20361;-69
2022/07/22 06:01:12;;;;;;;3.60;3.30;;;;;;;;;;5045441;28;20087;-70
2022/07/22 06:03:38;;;;;;;4.65;3.20;;;;;;;;;;5037504;28;20068;-72
2022/07/22 06:06:08;;;;;;;6.03;3.38;;;;;;;;;;5049972;28;20033;-72
2022/07/22 06:08:34;;;;;;;3.80;2.85;;;;;;;;;;5030856;28;20026;-67
2022/07/22 06:11:00;;;;;;;3.17;2.88;;;;;;;;;;5043535;28;20356;-71
2022/07/22 06:13:26;;;;;;;4.80;2.95;;;;;;;;;;5045865;28;20383;-72
2022/07/22 06:15:52;;;;;;;5.75;3.47;;;;;;;;;;5052491;28;20021;-70
2022/07/22 06:18:18;;;;;;;3.50;3.05;;;;;;;;;;5038816;28;20391;-68
2022/07/22 06:20:45;;;;;;;7.95;3.08;;;;;;;;;;5044914;28;20022;-70
2022/07/22 06:23:11;;;;;;;4.03;3.60;;;;;;;;;;5044899;28;20017;-69
2022/07/22 06:25:36;;;;;;;5.00;4.47;;;38.80;27.40;;;;;;5019867;28;20049;-68
2022/07/22 06:28:02;;;;;;;4.38;2.80;;;38.80;27.30;;;;;;5033824;28;20331;-69
2022/07/22 06:30:28;;;;;;;4.07;3.10;;;39.00;26.70;;;;;;5046676;28;20040;-69
2022/07/22 06:32:54;;;;;;;5.05;3.15;;;39.20;26.50;;;;;;5038165;28;20499;-70
2022/07/22 06:35:19;;;;;;;4.40;2.92;;;38.40;27.40;;;;;;5043802;28;20107;-70
2022/07/22 06:37:45;;;;;;;3.63;3.20;;;38.40;27.30;;;;;;5032801;28;20528;-70
2022/07/22 06:40:11;;;;;;;5.70;3.25;;;38.50;27.30;;;;;;5019566;28;20044;-68
2022/07/22 06:42:38;;;;;;;5.25;3.20;;;39.40;26.20;;;;;;5052064;28;20072;-69
2022/07/22 06:45:04;;;;;;;5.10;3.38;;;38.80;27.10;;;;;;5041710;28;20017;-70
2022/07/22 06:47:31;;;;;;;3.55;3.25;;;37.90;28.10;;;;;;5031206;28;20096;-70
2022/07/22 06:49:57;;;;;;;3.67;3.30;;;38.60;27.50;;;;;;5049082;28;20055;-69
2022/07/22 06:52:23;;;;;;;3.35;2.75;;;38.50;27.50;;;;;;5037375;28;20033;-70
2022/07/22 06:54:49;;;;;;;3.30;3.00;;;38.90;27.30;;;;;;5043814;28;20025;-69
2022/07/22 06:57:14;;;;;;;3.20;2.90;;;39.10;26.90;;;;;;5043563;28;20047;-69
2022/07/22 06:59:40;;;;;;;3.60;3.15;;;39.60;26.10;;;;;;5050288;28;20025;-69
2022/07/22 07:02:06;;;;;;;5.18;2.95;;;39.50;26.20;;;;;;5032699;28;20033;-69
2022/07/22 07:04:31;;;;;;;4.45;3.00;;;40.00;25.90;;;;;;5038543;28;20024;-67
2022/07/22 07:06:57;;;;;;;4.63;3.00;;;40.10;25.50;;;;;;5041395;28;20097;-69
2022/07/22 07:09:23;;;;;;;7.82;4.10;;;40.00;25.90;;;;;;5045051;28;20033;-69
2022/07/22 07:11:48;;;;;;;3.40;3.00;;;40.30;26.80;;;;;;5035058;28;20105;-68
2022/07/22 07:14:14;;;;;;;3.58;3.28;;;40.30;25.60;;;;;;5048222;28;20387;-69
2022/07/22 07:16:40;;;;;;;4.55;3.03;;;39.90;25.60;;;;;;5032899;28;20041;-68
2022/07/22 07:19:05;;;;;;;4.20;3.30;;;39.20;26.80;;;;;;5042134;28;20036;-69
2022/07/22 07:21:31;;;;;;;4.32;3.45;;;39.90;26.50;;;;;;5037226;28;20096;-69
2022/07/22 07:23:56;;;;;;;5.45;3.20;;;39.90;25.90;;;;;;5048468;28;20399;-69
2022/07/22 07:26:22;;;;;;;3.92;3.53;;;39.90;26.40;;;;;;5036767;28;20021;-69
2022/07/22 07:28:48;;;;;;;5.70;3.38;;;;;;;;;;5042395;28;20037;-70
2022/07/22 07:31:14;;;;;;;3.35;3.15;;;;;;;;;;5042943;28;20796;-71
2022/07/22 07:33:40;;;;;;;4.95;3.65;;;;;;;;;;5034320;28;20025;-70
2022/07/22 07:36:06;;;;;;;4.35;3.75;;;39.70;26.10;;;;;;5030041;28;20479;-73
2022/07/22 07:38:31;;;;;;;5.32;3.70;;;39.90;25.70;;;;;;5011688;28;20021;-70
2022/07/22 07:40:57;;;;;;;5.22;3.80;;;40.10;25.70;;;;;;5030213;28;20064;-71
2022/07/22 07:43:23;;;;;;;3.55;3.25;;;39.60;25.80;;;;;;5030669;28;20037;-69
2022/07/22 07:45:49;;;;;;;4.35;3.80;;;;;;;;;;5030396;28;20021;-71
2022/07/22 07:48:14;;;;;;;4.40;3.95;;;37.90;27.90;;;;;;5031359;28;20449;-71
2022/07/22 07:50:40;;;;;;;4.78;3.70;;;36.30;30.00;;;;;;5031249;28;20056;-70
2022/07/22 07:53:06;;;;;;;6.20;3.88;;;35.40;31.80;;;;;;5031214;28;20028;-70
2022/07/22 07:55:32;;;;;;;5.32;3.80;;;35.30;32.10;;;;;;5030571;28;20446;-71
2022/07/22 07:57:57;;;;;;;7.20;4.50;;;35.70;31.20;;;;;;5031397;28;20048;-70
2022/07/22 08:00:30;;;;;;;5.88;3.75;;;36.70;30.10;;;;;;5013740;28;20039;-72
2022/07/22 08:02:56;;;;;;;7.50;4.28;;;;;;;;;;5031841;28;20099;-70
2022/07/22 08:05:22;;;;;;;4.75;3.80;;;37.40;28.60;;;;;;5031825;28;20527;-71
2022/07/22 08:07:48;;;;;;;4.68;3.78;;;36.90;29.80;;;;;;5031001;28;20510;-72
2022/07/22 08:10:15;;;;;;;6.72;3.25;;;37.50;28.80;;;;;;5032188;28;20033;-71
2022/07/22 08:12:41;;;;;;;4.78;4.20;;;38.30;28.10;;;;;;5031982;28;20026;-73
2022/07/22 08:15:07;;;;;;;4.05;3.58;;;37.60;28.40;;;;;;5031571;28;20212;-71
2022/07/22 08:17:34;;;;;;;9.45;3.80;;;36.60;30.40;;;;;;5031717;28;20047;-71
2022/07/22 08:19:59;;;;;;;4.20;3.20;;;36.70;30.00;;;;;;5038256;28;20027;-74
2022/07/22 08:22:25;;;;;;;3.78;3.45;;;37.60;28.90;;;;;;5020356;28;20113;-71
2022/07/22 08:24:50;;;;;;;4.10;3.30;;;37.90;28.50;;;;;;5037536;28;20045;-71
2022/07/22 08:27:16;;;;;;;5.97;4.00;;;38.50;27.60;;;;;;5037204;28;20083;-71
2022/07/22 08:29:42;;;;;;;3.83;3.53;;;38.60;27.20;;;;;;5038214;28;20047;-72
2022/07/22 08:32:07;;;;;;;3.78;3.45;;;37.90;28.20;;;;;;5038178;28;20025;-70
2022/07/22 08:34:34;;;;;;;7.82;3.75;;;38.40;27.90;;;;;;5037794;28;20541;-71
2022/07/22 08:36:59;;;;;;;6.43;4.10;;;38.40;27.30;;;;;;5037604;28;20049;-70
2022/07/22 08:39:26;;;;;;;4.13;3.47;;;;;;;;;;5037766;28;20044;-71
2022/07/22 08:41:52;;;;;;;5.22;3.97;;;;;;;;;;5038401;28;20029;-69
2022/07/22 08:44:18;;;;;;;4.20;3.80;;;;;;;;;;5037727;28;20506;-71
2022/07/22 08:46:45;;;;;;;6.22;3.80;;;;;;;;;;5038009;28;20114;-71
2022/07/22 08:49:13;;;;;;;7.15;3.63;;;;;;;;;;5037461;28;20468;-72
2022/07/22 08:51:39;;;;;;;5.82;3.67;;;;;;;;;;5038077;28;20026;-72
2022/07/22 08:54:05;;;;;;;5.28;4.47;;;;;;;;;;5038070;28;20043;-71
2022/07/22 08:56:31;;;;;;;6.85;3.90;;;;;;;;;;5038179;28;20025;-73
2022/07/22 08:58:57;;;;;;;4.40;4.00;;;;;;;;;;5036776;28;20043;-72
2022/07/22 09:01:23;;;;;;;4.28;3.88;;;;;;;;;;5037976;28;20029;-71
2022/07/22 09:03:52;;;;;;;3.97;3.67;;;;;;;;;;5037575;28;20029;-71
2022/07/22 09:06:19;;;;;;;9.00;4.35;;;;;;;;;;5037131;28;20026;-70
2022/07/22 09:08:55;;;;;;;4.72;4.07;;;;;;;;;;5036885;28;20025;-71
2022/07/22 09:11:22;;;;;;;5.47;4.40;;;;;;;;;;5038091;28;20032;-70
2022/07/22 09:13:48;;;;;;;6.10;4.30;;;;;;;;;;5037492;28;20029;-73
2022/07/22 09:16:14;;;;;;;6.20;4.47;;;;;;;;;;5037623;28;20045;-71
2022/07/22 09:18:47;;;;;;;4.80;4.30;;;;;;;;;;5019155;28;20060;-71
2022/07/22 09:21:14;;;;;;;5.18;3.70;;;;;;;;;;5037695;28;20479;-72
2022/07/22 09:23:41;;;;;;;7.90;4.75;;;;;;;;;;5037477;28;20029;-70
2022/07/22 09:26:07;;;;;;;6.65;4.13;;;;;;;;;;5019641;28;20021;-70
2022/07/22 09:28:34;;;;;;;4.57;4.07;;;;;;;;;;5036934;28;20494;-70
2022/07/22 09:31:00;;;;;;;3.95;3.55;;;;;;;;;;5034052;28;20104;-70
2022/07/22 09:33:26;;;;;;;5.60;4.18;;;;;;;;;;5017022;28;20043;-71
2022/07/22 09:35:53;;;;;;;5.20;4.57;;;;;;;;;;5035092;28;20017;-71
2022/07/22 09:38:27;;;;;;;6.65;4.72;;;;;;;;;;5034858;28;20026;-70
2022/07/22 09:40:53;;;;;;;4.80;4.28;;;;;;;;;;5018220;28;20029;-70
2022/07/22 09:43:20;;;;;;;6.65;4.57;;;;;;;;;;5036032;28;20028;-72
2022/07/22 09:45:48;;;;;;;7.13;4.80;;;;;;;;;;5035048;28;20099;-69
2022/07/22 09:48:14;;;;;;;4.70;4.28;;;;;;;;;;5033618;28;20036;-71
2022/07/22 09:50:40;;;;;;;5.25;4.40;;;;;;;;;;5035049;28;20109;-70
2022/07/22 09:53:06;;;;;;;4.32;3.92;;;;;;;;;;5034886;28;20436;-70
2022/07/22 09:55:33;;;;;;;7.20;4.72;;;36.10;29.00;;;;;;5032266;28;20021;-71
2022/07/22 09:57:59;;;;;;;9.13;4.82;;;35.90;29.20;;;;;;5034683;28;20052;-71
2022/07/22 10:00:27;;;;;;;6.55;4.75;;;35.20;30.40;;;;;;5036983;28;20022;-70
2022/07/22 10:02:56;;;;;;;6.72;4.78;;;35.40;30.50;;;;;;5035512;28;20017;-71
2022/07/22 10:05:25;;;;;;;8.18;4.90;;;35.10;30.60;;;;;;5036848;28;20109;-71
2022/07/22 10:07:52;;;;;;;8.10;5.10;;;34.00;32.10;;;;;;5033918;28;20021;-71
2022/07/22 10:10:25;;;;;;;7.40;4.82;;;33.10;33.00;;;;;;5033826;28;20703;-70
2022/07/22 10:12:52;;;;;;;6.88;4.70;;;;;;;;;;5033622;28;20030;-70
2022/07/22 10:15:19;;;;;;;5.40;4.85;;;33.30;33.50;;;;;;5033568;28;20030;-71
2022/07/22 10:17:48;;;;;;;5.53;4.80;;;33.50;32.70;;;;;;5033428;28;20104;-71
2022/07/22 10:20:18;;;;;;;7.47;5.28;;;33.70;32.50;;;;;;5033946;28;20030;-72
2022/07/22 10:22:49;;;;;;;6.55;5.05;;;33.50;32.80;;;;;;5034541;28;20029;-71
2022/07/22 10:25:16;;;;;;;5.78;5.07;;;33.20;33.10;;;;;;5034824;28;20378;-70
2022/07/22 10:27:55;;;;;;;6.53;4.75;;;33.00;33.40;;;;;;5034520;28;20026;-70
2022/07/22 10:30:42;;;;;;;6.40;4.82;;;32.90;34.00;;;;;;5034296;28;20068;-71
2022/07/22 10:33:09;;;;;;;5.50;5.00;;;32.90;33.30;;;;;;5033176;28;20038;-70
2022/07/22 10:35:37;;;;;;;7.30;4.85;;;33.00;33.70;;;;;;5015416;28;20056;-70
2022/07/22 10:38:06;;;;;;;6.43;4.90;;;33.00;33.50;;;;;;5033022;28;20041;-72
2022/07/22 10:40:45;;;;;;;7.07;5.28;;;33.40;33.00;;;;;;5033225;28;20063;-71
2022/07/22 10:43:13;;;;;;;9.20;5.28;;;33.60;32.30;;;;;;5055229;22;20057;-69
2022/07/22 10:45:52;;;;;;;11.07;4.88;;;33.30;32.30;;;;;;5032452;28;20029;-68
2022/07/22 10:48:44;;;;;;;7.35;5.05;;;33.10;32.30;;;;;;5030392;28;20025;-68
2022/07/22 10:51:17;;;;;;;9.18;5.40;;;32.70;33.20;;;;;;5032217;28;20021;-69
2022/07/22 10:53:51;;;;;;;8.23;5.05;;;32.40;33.60;;;;;;5032325;28;20025;-69
2022/07/22 10:56:35;;;;;;;6.78;4.72;;;32.50;33.90;;;;;;5014178;28;20383;-69
2022/07/22 10:59:16;;;;;;;5.10;4.43;;;32.40;33.90;;;;;;5031601;28;20028;-69
2022/07/22 11:01:47;;;;;;;8.25;4.55;;;31.40;36.00;;;;;;5031987;28;20032;-70
2022/07/22 11:04:21;;;;;;;5.18;4.53;;;31.00;36.90;;;;;;5032405;28;20436;-70
2022/07/22 11:06:49;;;;;;;5.47;4.47;;;30.90;37.20;;;;;;5032200;28;20048;-69
2022/07/22 11:09:16;;;;;;;6.35;4.95;;;30.90;37.00;;;;;;5031486;28;20480;-69
2022/07/22 11:11:52;;;;;;;7.10;5.20;;;31.00;37.10;;;;;;5032112;28;20040;-69
2022/07/22 11:14:27;;;;;;;7.18;4.93;;;31.20;36.80;;;;;;5031788;28;20084;-70
2022/07/22 11:16:55;;;;;;;7.22;4.45;;;31.00;37.00;;;;;;5032161;28;20028;-70
2022/07/22 11:19:26;;;;;;;9.13;4.80;;;30.80;37.20;;;;;;5031182;28;20021;-69
2022/07/22 11:21:55;;;;;;;7.30;4.85;;;30.80;37.90;;;;;;5032040;28;20025;-69
2022/07/22 11:24:21;;;;;;;5.80;4.97;;;;;;;;;;5031385;28;20029;-68
2022/07/22 11:26:50;;;;;;;8.98;5.45;;;29.80;40.00;;;;;;5031535;28;20036;-68
2022/07/22 11:29:25;;;;;;;6.07;5.10;;;29.90;39.00;;;;;;5031191;28;20029;-68
2022/07/22 11:31:51;;;;;;;6.50;5.10;;;29.90;39.10;;;;;;5031815;28;20029;-69
2022/07/22 11:34:17;;;;;;;11.52;5.00;;;29.60;39.40;;;;;;5031809;28;20033;-70
2022/07/22 11:36:44;;;;;;;6.82;5.00;;;29.60;39.70;;;;;;5031643;28;20021;-69
2022/07/22 11:39:12;;;;;;;8.05;4.75;;;29.50;40.00;;;;;;5031373;28;20034;-68
2022/07/22 11:41:38;;;;;;;6.78;5.28;;;29.80;39.80;;;;;;5031831;28;20029;-69
2022/07/22 11:44:04;;;;;;;9.52;5.43;;;29.90;39.50;;;;;;5013655;28;20033;-68
2022/07/22 11:46:41;;;;;;;6.68;4.95;;;29.80;39.10;;;;;;5031616;28;20033;-68
2022/07/22 11:49:08;;;;;;;6.55;5.13;;;29.50;39.50;;;;;;5030837;28;20021;-69
2022/07/22 11:51:36;;;;;;;8.70;5.30;;;29.40;40.30;;;;;;5031239;28;20029;-69
2022/07/22 11:54:03;;;;;;;7.97;4.90;;;29.50;40.00;;;;;;5030615;28;20021;-69
2022/07/22 11:56:29;;;;;;;9.52;5.30;;;29.50;39.60;;;;;;5030917;28;20484;-69
2022/07/22 11:58:56;;;;;;;8.90;4.53;;;29.40;40.50;;;;;;5030558;28;20022;-68
2022/07/22 12:01:25;;;;;;;6.28;4.70;;;29.40;40.30;;;;;;5013256;28;20155;-70
2022/07/22 12:03:59;;;;;;;7.28;4.40;;;29.50;40.40;;;;;;5031263;28;20025;-69
2022/07/22 12:06:27;;;;;;;6.65;4.65;;;29.70;39.90;;;;;;5031080;28;20045;-69
2022/07/22 12:09:15;;;;;;;7.63;4.65;;;29.80;38.90;;;;;;5030563;28;20483;-69
2022/07/22 12:11:43;;;;;;;5.18;4.68;;;29.70;39.50;;;;;;5030836;28;20033;-69
2022/07/22 12:14:10;;;;;;;6.25;4.50;;;29.80;39.10;;;;;;5030858;28;20065;-70
2022/07/22 12:16:37;;;;;;;7.07;4.40;;;29.60;39.40;;;;;;5031335;28;20025;-69
2022/07/22 12:19:04;;;;;;;7.95;4.70;;;29.60;39.70;;;;;;5030465;28;20056;-69
2022/07/22 12:21:33;;;;;;;10.30;4.13;;;29.80;39.70;;;;;;5031552;28;20101;-70
2022/07/22 12:24:07;;;;;;;7.53;4.47;;;29.90;39.40;;;;;;5013081;28;20693;-69
2022/07/22 12:26:46;;;;;;;6.40;4.47;;;29.90;38.30;;;;;;5031080;28;20033;-69
2022/07/22 12:29:20;;;;;;;7.40;4.32;;;29.90;39.10;;;;;;5012612;28;20423;-70
2022/07/22 12:31:49;;;;;;;7.78;5.85;;;30.00;39.50;;;;;;5030984;28;20030;-70
2022/07/22 12:34:14;;;;;;;6.07;4.60;;;30.00;38.90;;;;;;5030941;28;20529;-69
2022/07/22 12:36:47;;;;;;;6.95;3.90;;;30.10;38.90;;;;;;5030979;28;20052;-68
2022/07/22 12:39:21;;;;;;;5.63;4.07;;;29.90;39.00;;;;;;5030134;28;20063;-69
2022/07/22 12:41:53;;;;;;;5.10;3.70;;;30.00;39.30;;;;;;5030690;28;20038;-69
2022/07/22 12:44:22;;;;;;;3.95;3.63;;;29.90;39.10;;;;;;5030880;28;20076;-69
2022/07/22 12:46:53;;;;;;;4.22;3.83;;;30.00;39.10;;;;;;5030740;28;20026;-70
2022/07/22 12:49:21;;;;;;;4.57;4.07;;;29.70;38.80;;;;;;5030351;28;20107;-69
2022/07/22 12:52:13;;;;;;;6.63;3.70;;;28.90;40.30;;;;;;5030933;28;20036;-69
2022/07/22 12:54:40;;;;;;;4.28;3.92;;;28.90;40.50;;;;;;5030491;28;20026;-69
2022/07/22 12:57:07;;;;;;;4.75;4.10;;;29.10;40.70;;;;;;5029694;28;20542;-69
2022/07/22 12:59:35;;;;;;;11.07;4.43;;;29.30;40.10;;;;;;5030603;28;20411;-69
2022/07/22 13:02:01;;;;;;;4.15;3.60;;;29.20;39.50;;;;;;5030474;28;20026;-69
2022/07/22 13:04:27;;;;;;;11.27;4.18;;;29.20;40.00;;;;;;5030636;28;20533;-69
2022/07/22 13:06:52;;;;;;;4.65;3.88;;;29.50;39.40;;;;;;5034291;28;20033;-70
2022/07/22 13:09:18;;;;;;;3.75;3.45;;;29.50;39.70;;;;;;5033484;28;20496;-70
2022/07/22 13:11:45;;;;;;;6.68;3.72;;;29.50;39.00;;;;;;5016584;28;20503;-69